Time;durP1;ratioP1;P1;durP2;ratioP2;P2;SDS_P1;SDS_P2;PMS_P1;PMS_P2;Temp;Humidity;BMP_temperature;BMP_pressure;BME280_temperature;BME280_humidity;BME280_pressure;Samples;Min_cycle;Max_cycle;Signal;HPM_P1;HPM_P2
2023/01/02 00:00:06;;;;;;;;;;;13.40;99.90;;;;;;5052153;28;20000;-52
2023/01/02 00:02:37;;;;;;;;;;;13.40;99.90;;;;;;5052210;28;19913;-54
2023/01/02 00:05:03;;;;;;;;;;;13.40;99.90;;;;;;5052323;28;19912;-54
2023/01/02 00:07:29;;;;;;;;;;;13.40;99.90;;;;;;5051953;28;19962;-53
2023/01/02 00:09:55;;;;;;;;;;;13.40;99.90;;;;;;5052165;28;19955;-52
2023/01/02 00:12:20;;;;;;;;;;;13.40;99.90;;;;;;5052099;28;19909;-53
2023/01/02 00:14:46;;;;;;;;;;;13.40;99.90;;;;;;5052114;28;20292;-53
2023/01/02 00:17:11;;;;;;;;;;;13.40;99.90;;;;;;5051887;28;19916;-54
2023/01/02 00:19:37;;;;;;;;;;;13.50;99.90;;;;;;5051775;28;19916;-54
2023/01/02 00:22:02;;;;;;;;;;;13.50;99.90;;;;;;5051859;28;20287;-53
2023/01/02 00:24:28;;;;;;;;;;;13.50;99.90;;;;;;5050781;28;19959;-53
2023/01/02 00:26:54;;;;;;;;;;;13.60;99.90;;;;;;5051732;28;19913;-55
2023/01/02 00:29:19;;;;;;;;;;;13.60;99.90;;;;;;5051561;28;19912;-56
2023/01/02 00:31:45;;;;;;;;;;;13.60;99.90;;;;;;5051716;28;19909;-54
2023/01/02 00:34:10;;;;;;;;;;;13.70;99.90;;;;;;5051760;28;19912;-55
2023/01/02 00:36:36;;;;;;;;;;;13.80;99.90;;;;;;5051500;28;19958;-54
2023/01/02 00:39:02;;;;;;;;;;;13.80;99.90;;;;;;5051680;28;19962;-53
2023/01/02 00:41:27;;;;;;;;;;;13.80;99.90;;;;;;5051433;28;19908;-53
2023/01/02 00:43:53;;;;;;;;;;;13.80;99.90;;;;;;5051515;28;19920;-52
2023/01/02 00:46:18;;;;;;;;;;;13.80;99.90;;;;;;5051427;28;20361;-54
2023/01/02 00:48:44;;;;;;;;;;;13.80;99.90;;;;;;5051173;28;19917;-54
2023/01/02 00:51:10;;;;;;;;;;;13.80;99.90;;;;;;5051358;28;19909;-54
2023/01/02 00:53:35;;;;;;;;;;;13.70;99.90;;;;;;5051414;28;20403;-52
2023/01/02 00:56:01;;;;;;;;;;;13.70;99.90;;;;;;5051346;28;19905;-53
2023/01/02 00:58:27;;;;;;;;;;;13.80;99.90;;;;;;5051285;28;20000;-54
2023/01/02 01:00:52;;;;;;;;;;;13.70;99.90;;;;;;5051468;28;20319;-51
2023/01/02 01:03:18;;;;;;;;;;;13.70;99.90;;;;;;5051171;28;19909;-50
2023/01/02 01:05:43;;;;;;;;;;;13.70;99.90;;;;;;5051115;28;20360;-53
2023/01/02 01:08:09;;;;;;;;;;;13.70;99.90;;;;;;5049763;28;19913;-53
2023/01/02 01:10:35;;;;;;;;;;;13.60;99.90;;;;;;5050940;28;20369;-52
2023/01/02 01:13:01;;;;;;;;;;;13.60;99.90;;;;;;5050671;28;19908;-51
2023/01/02 01:15:26;;;;;;;;;;;13.50;99.90;;;;;;5051009;28;19915;-52
2023/01/02 01:17:52;;;;;;;;;;;13.40;99.90;;;;;;5050964;28;19951;-55
2023/01/02 01:20:19;;;;;;;;;;;13.40;99.90;;;;;;5050755;28;20269;-54
2023/01/02 01:22:45;;;;;;;;;;;13.30;99.90;;;;;;5050932;28;19916;-53
2023/01/02 01:25:10;;;;;;;;;;;13.20;99.90;;;;;;5051078;28;19916;-54
2023/01/02 01:27:36;;;;;;;;;;;13.10;99.90;;;;;;5049574;28;20384;-55
2023/01/02 01:30:02;;;;;;;;;;;13.00;99.90;;;;;;5050700;28;20309;-53
2023/01/02 01:32:29;;;;;;;;;;;13.00;99.90;;;;;;5050917;28;19966;-53
2023/01/02 01:34:54;;;;;;;;;;;12.90;99.90;;;;;;5050700;28;20339;-54
2023/01/02 01:37:20;;;;;;;;;;;12.80;99.90;;;;;;5050691;28;19909;-55
2023/01/02 01:39:46;;;;;;;;;;;12.70;99.90;;;;;;5050903;28;19936;-53
2023/01/02 01:42:12;;;;;;;;;;;12.70;99.90;;;;;;5050977;28;19908;-53
2023/01/02 01:44:47;;;;;;;;;;;12.60;99.90;;;;;;5050635;28;19913;-53
2023/01/02 01:47:19;;;;;;;;;;;12.60;99.90;;;;;;5050553;28;19916;-53
2023/01/02 01:49:45;;;;;;;;;;;12.50;99.90;;;;;;5050539;28;19961;-54
2023/01/02 01:52:16;;;;;;;;;;;12.40;99.90;;;;;;5050811;28;19931;-54
2023/01/02 01:54:49;;;;;;;;;;;12.40;99.90;;;;;;5050596;28;19912;-53
2023/01/02 01:57:18;;;;;;;;;;;12.30;99.90;;;;;;5050472;28;19920;-53
2023/01/02 01:59:44;;;;;;;;;;;12.30;99.90;;;;;;5050396;28;19931;-53
2023/01/02 02:02:09;;;;;;;;;;;12.30;99.90;;;;;;5050779;28;19909;-53
2023/01/02 02:04:35;;;;;;;;;;;12.30;99.90;;;;;;5050635;28;20380;-54
2023/01/02 02:07:01;;;;;;;;;;;12.30;99.90;;;;;;5050474;28;19955;-53
2023/01/02 02:09:30;;;;;;;;;;;12.30;99.90;;;;;;5050351;28;19913;-53
2023/01/02 02:11:56;;;;;;;;;;;12.20;99.90;;;;;;5050681;28;19955;-53
2023/01/02 02:14:22;;;;;;;;;;;12.20;99.90;;;;;;5050414;28;20384;-54
2023/01/02 02:16:50;;;;;;;;;;;12.20;99.90;;;;;;5050265;28;19962;-55
2023/01/02 02:19:34;;;;;;;;;;;12.20;99.90;;;;;;5050562;28;19909;-53
2023/01/02 02:22:10;;;;;;;;;;;12.20;99.90;;;;;;5050590;28;19975;-52
2023/01/02 02:24:47;;;;;;;;;;;12.20;99.90;;;;;;5050263;28;19916;-53
2023/01/02 02:27:19;;;;;;;;;;;12.30;99.90;;;;;;5053295;28;19909;-54
2023/01/02 02:30:03;;;;;;;;;;;12.20;99.90;;;;;;5053720;28;20365;-55
2023/01/02 02:32:31;;;;;;;;;;;12.20;99.90;;;;;;5053943;28;20443;-52
2023/01/02 02:35:00;;;;;;;;;;;12.20;99.90;;;;;;5054006;28;19920;-53
2023/01/02 02:37:31;;;;;;;;;;;12.30;99.90;;;;;;5053649;28;19950;-55
2023/01/02 02:40:16;;;;;;;;;;;12.20;99.90;;;;;;5053672;28;20467;-54
2023/01/02 02:42:52;;;;;;;;;;;12.20;99.90;;;;;;5053789;28;19946;-55
2023/01/02 02:45:18;;;;;;;;;;;12.20;99.90;;;;;;5053856;28;19908;-52
2023/01/02 02:47:54;;;;;;;;;;;12.10;99.90;;;;;;5053518;28;19923;-55
2023/01/02 02:50:29;;;;;;;;;;;12.10;99.90;;;;;;5053460;28;20365;-53
2023/01/02 02:53:02;;;;;;;;;;;12.00;99.90;;;;;;5053701;28;19965;-54
2023/01/02 02:55:31;;;;;;;;;;;12.00;99.90;;;;;;5066125;22;19920;-48
2023/01/02 02:57:57;;;;;;;;;;;12.00;99.90;;;;;;5053295;28;19909;-48
2023/01/02 03:00:23;;;;;;;;;;;12.00;99.90;;;;;;5053457;28;19916;-50
2023/01/02 03:02:49;;;;;;;;;;;11.90;99.90;;;;;;5053470;28;19909;-47
2023/01/02 03:05:40;;;;;;;;;;;11.90;99.90;;;;;;5053404;28;19915;-48
2023/01/02 03:08:27;;;;;;;;;;;11.90;99.90;;;;;;5049181;28;19916;-49
2023/01/02 03:10:56;;;;;;;;;;;11.90;99.90;;;;;;5053109;28;19909;-50
2023/01/02 03:13:25;;;;;;;;;;;11.80;99.90;;;;;;5053330;28;19916;-52
2023/01/02 03:16:07;;;;;;;;;;;11.90;99.90;;;;;;5053338;28;19912;-50
2023/01/02 03:18:36;;;;;;;;;;;12.00;99.90;;;;;;5051531;28;19915;-52
2023/01/02 03:21:06;;;;;;;;;;;12.00;99.90;;;;;;5053398;28;19904;-52
2023/01/02 03:23:35;;;;;;;;;;;11.90;99.90;;;;;;5052948;28;19955;-51
2023/01/02 03:26:02;;;;;;;;;;;12.00;99.90;;;;;;5053219;28;19913;-51
2023/01/02 03:28:29;;;;;;;;;;;12.00;99.90;;;;;;5052619;28;19917;-51
2023/01/02 03:30:56;;;;;;;;;;;11.90;99.90;;;;;;5052921;28;19948;-50
2023/01/02 03:33:28;;;;;;;;;;;11.80;99.90;;;;;;5052783;28;19955;-52
2023/01/02 03:35:55;;;;;;;;;;;11.90;99.90;;;;;;5051427;28;20297;-52
2023/01/02 03:38:23;;;;;;;;;;;11.90;99.90;;;;;;5051324;28;19913;-51
2023/01/02 03:40:52;;;;;;;;;;;11.90;99.90;;;;;;5052510;28;19916;-51
2023/01/02 03:43:21;;;;;;;;;;;11.80;99.90;;;;;;5052742;28;19931;-52
2023/01/02 03:45:49;;;;;;;;;;;11.90;99.90;;;;;;5052629;28;19931;-54
2023/01/02 03:48:41;;;;;;;;;;;11.80;99.90;;;;;;5052566;28;19934;-53
2023/01/02 03:51:07;;;;;;;;;;;11.80;99.90;;;;;;5021407;28;20381;-49
2023/01/02 03:53:33;;;;;;;;;;;11.80;99.90;;;;;;5052362;28;19915;-53
2023/01/02 03:55:59;;;;;;;;;;;11.80;99.90;;;;;;5052507;28;19908;-51
2023/01/02 03:58:35;;;;;;;;;;;11.80;99.90;;;;;;5052127;28;19962;-51
2023/01/02 04:01:06;;;;;;;;;;;11.70;99.90;;;;;;5052558;28;19982;-50
2023/01/02 04:03:59;;;;;;;;;;;11.70;99.90;;;;;;5052253;28;19909;-49
2023/01/02 04:06:30;;;;;;;;;;;11.80;99.90;;;;;;5048475;28;20427;-52
2023/01/02 04:09:22;;;;;;;;;;;11.70;99.90;;;;;;5051916;28;19955;-50
2023/01/02 04:12:02;;;;;;;;;;;11.60;99.90;;;;;;5048055;28;19915;-51
2023/01/02 04:14:34;;;;;;;;;;;11.60;99.90;;;;;;5052203;28;20178;-51
2023/01/02 04:17:01;;;;;;;;;;;11.60;99.90;;;;;;5051868;28;19959;-50
2023/01/02 04:19:30;;;;;;;;;;;11.60;99.90;;;;;;5051857;28;19952;-49
2023/01/02 04:21:58;;;;;;;;;;;11.70;99.90;;;;;;5051987;28;19916;-53
2023/01/02 04:24:30;;;;;;;;;;;11.60;99.90;;;;;;5051795;28;20293;-53
2023/01/02 04:26:58;;;;;;;;;;;11.70;99.90;;;;;;5052104;28;20366;-48
2023/01/02 04:29:24;;;;;;;;;;;11.70;99.90;;;;;;5051564;28;19912;-47
2023/01/02 04:32:11;;;;;;;;;;;11.70;99.90;;;;;;5051841;28;19955;-47
2023/01/02 04:34:37;;;;;;;;;;;11.80;99.90;;;;;;5051752;28;19909;-48
2023/01/02 04:37:03;;;;;;;;;;;11.70;99.90;;;;;;5051681;28;19934;-49
2023/01/02 04:39:29;;;;;;;;;;;11.80;99.90;;;;;;5051317;28;20284;-49
2023/01/02 04:41:55;;;;;;;;;;;11.80;99.90;;;;;;5051589;28;20003;-52
2023/01/02 04:44:20;;;;;;;;;;;11.80;99.90;;;;;;5051624;28;20336;-48
2023/01/02 04:46:46;;;;;;;;;;;11.80;99.90;;;;;;5051339;28;19908;-48
2023/01/02 04:49:11;;;;;;;;;;;11.80;99.90;;;;;;5050509;28;19913;-49
2023/01/02 04:51:37;;;;;;;;;;;11.80;99.90;;;;;;5051494;28;19909;-48
2023/01/02 04:54:04;;;;;;;;;;;11.80;99.90;;;;;;5051287;28;19991;-52
2023/01/02 04:56:29;;;;;;;;;;;11.80;99.90;;;;;;5051336;28;20369;-49
2023/01/02 04:58:55;;;;;;;;;;;11.80;99.90;;;;;;5051082;28;19958;-51
2023/01/02 05:01:21;;;;;;;;;;;11.80;99.90;;;;;;5051499;28;19966;-51
2023/01/02 05:03:48;;;;;;;;;;;11.80;99.90;;;;;;5051257;28;19909;-48
2023/01/02 05:06:13;;;;;;;;;;;11.80;99.90;;;;;;5051303;28;19909;-49
2023/01/02 05:08:39;;;;;;;;;;;11.90;99.90;;;;;;5051095;28;19920;-50
2023/01/02 05:11:06;;;;;;;;;;;12.00;99.90;;;;;;5051103;28;19908;-47
2023/01/02 05:13:32;;;;;;;;;;;12.10;99.90;;;;;;5051110;28;19962;-49
2023/01/02 05:15:57;;;;;;;;;;;12.20;99.90;;;;;;5051366;28;20293;-47
2023/01/02 05:18:23;;;;;;;;;;;12.20;99.90;;;;;;5050952;28;19909;-49
2023/01/02 05:20:48;;;;;;;;;;;12.20;99.90;;;;;;5050869;28;19909;-50
2023/01/02 05:25:58;;;;;;;;;;;12.10;99.90;;;;;;5050936;28;19924;-49
2023/01/02 05:28:23;;;;;;;;;;;12.20;99.90;;;;;;5050739;28;19912;-50
2023/01/02 05:30:49;;;;;;;;;;;12.20;99.90;;;;;;5050778;28;20386;-53
2023/01/02 05:33:15;;;;;;;;;;;12.20;99.90;;;;;;5050977;28;19909;-49
2023/01/02 05:35:40;;;;;;;;;;;12.20;99.90;;;;;;5051002;28;19919;-49
2023/01/02 05:38:06;;;;;;;;;;;12.20;99.90;;;;;;5050706;28;19909;-52
2023/01/02 05:40:31;;;;;;;;;;;12.30;99.90;;;;;;5050638;28;19916;-49
2023/01/02 05:42:57;;;;;;;;;;;12.20;99.90;;;;;;5051131;28;20240;-50
2023/01/02 05:45:23;;;;;;;;;;;12.30;99.90;;;;;;5050823;28;19908;-49
2023/01/02 05:47:49;;;;;;;;;;;12.30;99.90;;;;;;5050586;28;20266;-49
2023/01/02 05:50:14;;;;;;;;;;;12.30;99.90;;;;;;5032672;28;19959;-48
2023/01/02 05:52:40;;;;;;;;;;;12.30;99.90;;;;;;5050816;28;19912;-47
2023/01/02 05:55:06;;;;;;;;;;;12.40;99.90;;;;;;5050579;28;19913;-47
2023/01/02 05:57:32;;;;;;;;;;;12.40;99.90;;;;;;5050486;28;19908;-51
2023/01/02 05:59:57;;;;;;;;;;;12.40;99.90;;;;;;5051849;28;19909;-46
2023/01/02 06:02:23;;;;;;;;;;;12.50;99.90;;;;;;5054684;28;19909;-51
2023/01/02 06:04:48;;;;;;;;;;;12.50;99.90;;;;;;5054660;28;19944;-47
2023/01/02 06:07:14;;;;;;;;;;;12.40;99.90;;;;;;5054346;28;19915;-47
2023/01/02 06:09:41;;;;;;;;;;;12.40;99.90;;;;;;5054138;28;19916;-51
2023/01/02 06:12:06;;;;;;;;;;;12.30;99.90;;;;;;5054771;28;19950;-47
2023/01/02 06:14:32;;;;;;;;;;;12.30;99.90;;;;;;5054482;28;19970;-48
2023/01/02 06:16:57;;;;;;;;;;;12.30;99.90;;;;;;5054299;28;19909;-47
2023/01/02 06:19:23;;;;;;;;;;;12.30;99.90;;;;;;5054275;28;19915;-47
2023/01/02 06:21:49;;;;;;;;;;;12.30;99.90;;;;;;5054275;28;20003;-48
2023/01/02 06:24:14;;;;;;;;;;;12.30;99.90;;;;;;5054134;28;19934;-50
2023/01/02 06:26:40;;;;;;;;;;;12.30;99.90;;;;;;5054241;28;19913;-47
2023/01/02 06:29:05;;;;;;;;;;;12.30;99.90;;;;;;5053837;28;19955;-52
2023/01/02 06:31:32;;;;;;;;;;;12.20;99.90;;;;;;5054130;28;19915;-49
2023/01/02 06:33:59;;;;;;;;;;;12.20;99.90;;;;;;5053991;28;19916;-49
2023/01/02 06:36:25;;;;;;;;;;;12.20;99.90;;;;;;5053857;28;19926;-48
2023/01/02 06:38:50;;;;;;;;;;;12.10;99.90;;;;;;5054103;28;20380;-49
2023/01/02 06:41:16;;;;;;;;;;;12.10;99.90;;;;;;5054143;28;19909;-50
2023/01/02 06:43:43;;;;;;;;;;;12.10;99.90;;;;;;5054032;28;19962;-52
2023/01/02 06:46:09;;;;;;;;;;;12.00;99.90;;;;;;5053915;28;20442;-50
2023/01/02 06:48:34;;;;;;;;;;;12.10;99.90;;;;;;5053381;28;20361;-49
2023/01/02 06:51:04;;;;;;;;;;;12.00;99.90;;;;;;5054067;28;19919;-48
2023/01/02 06:53:32;;;;;;;;;;;12.00;99.90;;;;;;5053452;28;19909;-48
2023/01/02 06:55:58;;;;;;;;;;;12.00;99.90;;;;;;5053662;28;19944;-47
2023/01/02 06:58:24;;;;;;;;;;;12.00;99.90;;;;;;5053346;28;19948;-50
2023/01/02 07:00:50;;;;;;;;;;;12.00;99.90;;;;;;5053401;28;19947;-48
2023/01/02 07:03:16;;;;;;;;;;;11.90;99.90;;;;;;5053521;28;19909;-50
2023/01/02 07:05:42;;;;;;;;;;;11.90;99.90;;;;;;5053494;28;19909;-50
2023/01/02 07:08:08;;;;;;;;;;;11.90;99.90;;;;;;5053188;28;20134;-51
2023/01/02 07:10:34;;;;;;;;;;;11.90;99.90;;;;;;5053102;28;19916;-50
2023/01/02 07:13:00;;;;;;;;;;;12.00;99.90;;;;;;5052612;28;19908;-48
2023/01/02 07:15:25;;;;;;;;;;;11.90;99.90;;;;;;5053262;28;19927;-51
2023/01/02 07:17:51;;;;;;;;;;;11.90;99.90;;;;;;5053118;28;20373;-52
2023/01/02 07:20:17;;;;;;;;;;;12.00;99.90;;;;;;5035070;28;20110;-49
2023/01/02 07:22:47;;;;;;;;;;;11.90;99.90;;;;;;5053225;28;19909;-53
2023/01/02 07:25:13;;;;;;;;;;;11.90;99.90;;;;;;5052969;28;20440;-51
2023/01/02 07:27:38;;;;;;;;;;;12.00;99.90;;;;;;5052919;28;20003;-50
2023/01/02 07:30:04;;;;;;;;;;;11.90;99.90;;;;;;5052778;28;19913;-51
2023/01/02 07:32:30;;;;;;;;;;;11.90;99.90;;;;;;5053114;28;19917;-48
2023/01/02 07:34:55;;;;;;;;;;;12.00;99.90;;;;;;5053274;28;19915;-52
2023/01/02 07:37:21;;;;;;;;;;;12.00;99.90;;;;;;5052908;28;19915;-50
2023/01/02 07:39:46;;;;;;;;;;;11.90;99.90;;;;;;5052586;28;19912;-48
2023/01/02 07:42:12;;;;;;;;;;;11.90;99.90;;;;;;5052798;28;20434;-49
2023/01/02 07:44:37;;;;;;;;;;;11.90;99.90;;;;;;5052838;28;19908;-50
2023/01/02 07:47:04;;;;;;;;;;;11.90;99.90;;;;;;5052567;28;19908;-52
2023/01/02 07:49:29;;;;;;;;;;;12.00;99.90;;;;;;5052349;28;19936;-51
2023/01/02 07:51:55;;;;;;;;;;;12.00;99.90;;;;;;5052574;28;20313;-47
2023/01/02 07:54:20;;;;;;;;;;;11.90;99.90;;;;;;5052299;28;20266;-47
2023/01/02 07:56:46;;;;;;;;;;;11.90;99.90;;;;;;5052338;28;19909;-50
2023/01/02 07:59:11;;;;;;;;;;;11.90;99.90;;;;;;5052232;28;19915;-48
2023/01/02 08:01:37;;;;;;;;;;;11.90;99.90;;;;;;5052356;28;20273;-49
2023/01/02 08:04:03;;;;;;;;;;;11.90;99.90;;;;;;5052191;28;19916;-48
2023/01/02 08:06:29;;;;;;;;;;;11.80;99.90;;;;;;5052054;28;19923;-49
2023/01/02 08:08:54;;;;;;;;;;;11.80;99.90;;;;;;5051969;28;19928;-48
2023/01/02 08:11:20;;;;;;;;;;;11.70;99.90;;;;;;5052212;28;19917;-48
2023/01/02 08:13:46;;;;;;;;;;;11.70;99.90;;;;;;5052178;28;19955;-47
2023/01/02 08:16:13;;;;;;;;;;;11.80;99.90;;;;;;5052042;28;19909;-51
2023/01/02 08:18:39;;;;;;;;;;;11.80;99.90;;;;;;5051640;28;19952;-48
2023/01/02 08:21:05;;;;;;;;;;;11.80;99.90;;;;;;5052090;28;19944;-53
2023/01/02 08:23:31;;;;;;;;;;;11.80;99.90;;;;;;5051970;28;19912;-49
2023/01/02 08:25:58;;;;;;;;;;;11.80;99.90;;;;;;5052026;28;19924;-50
2023/01/02 08:28:23;;;;;;;;;;;11.70;99.90;;;;;;5051749;28;19913;-49
2023/01/02 08:30:49;;;;;;;;;;;11.70;99.90;;;;;;5051716;28;20023;-50
2023/01/02 08:33:15;;;;;;;;;;;11.80;99.90;;;;;;5051705;28;19909;-52
2023/01/02 08:35:40;;;;;;;;;;;11.70;99.90;;;;;;5051769;28;20189;-50
2023/01/02 08:38:06;;;;;;;;;;;11.70;99.90;;;;;;5051375;28;19904;-48
2023/01/02 08:40:31;;;;;;;;;;;11.80;99.90;;;;;;5051623;28;19999;-52
2023/01/02 08:42:57;;;;;;;;;;;11.80;99.90;;;;;;5051643;28;19908;-52
2023/01/02 08:45:23;;;;;;;;;;;11.80;99.90;;;;;;5051643;28;19908;-51
2023/01/02 08:47:48;;;;;;;;;;;11.70;99.90;;;;;;5051290;28;19913;-51
2023/01/02 08:50:14;;;;;;;;;;;11.60;99.90;;;;;;5051650;28;20090;-53
2023/01/02 08:52:40;;;;;;;;;;;11.50;99.90;;;;;;5051366;28;19916;-52
2023/01/02 08:55:05;;;;;;;;;;;11.40;99.90;;;;;;5062906;22;19920;-60
2023/01/02 08:57:31;;;;;;;;;;;11.20;99.90;;;;;;5051142;28;19916;-61
2023/01/02 08:59:57;;;;;;;;;;;11.10;99.90;;;;;;5051039;28;20007;-60
2023/01/02 09:02:22;;;;;;;;;;;11.00;99.90;;;;;;5051322;28;19909;-61
2023/01/02 09:04:48;;;;;;;;;;;10.90;99.90;;;;;;5051208;28;20377;-61
2023/01/02 09:07:14;;;;;;;;;;;10.90;99.90;;;;;;5051106;28;19909;-61
2023/01/02 09:09:39;;;;;;;;;;;10.80;99.90;;;;;;5050949;28;19913;-61
2023/01/02 09:12:05;;;;;;;;;;;10.80;99.90;;;;;;5051173;28;19909;-60
2023/01/02 09:14:30;;;;;;;;;;;10.80;99.90;;;;;;5051077;28;20430;-60
2023/01/02 09:16:56;;;;;;;;;;;10.70;99.90;;;;;;5050942;28;19908;-61
2023/01/02 09:19:23;;;;;;;;;;;10.70;99.90;;;;;;5050679;28;19915;-60
2023/01/02 09:21:49;;;;;;;;;;;10.60;99.90;;;;;;5051025;28;19974;-60
2023/01/02 09:24:14;;;;;;;;;;;10.60;99.90;;;;;;5051008;28;20383;-60
2023/01/02 09:26:41;;;;;;;;;;;10.60;99.90;;;;;;5050847;28;19909;-61
2023/01/02 09:29:07;;;;;;;;;;;10.50;99.90;;;;;;5050593;28;19959;-60
2023/01/02 09:31:33;;;;;;;;;;;10.60;99.90;;;;;;5050933;28;19909;-61
2023/01/02 09:33:58;;;;;;;;;;;10.60;99.90;;;;;;5051181;28;20379;-61
2023/01/02 09:36:24;;;;;;;;;;;10.50;99.90;;;;;;5057251;28;19908;-60
2023/01/02 09:38:54;;;;;;;;;;;10.40;99.90;;;;;;5057350;28;19916;-60
2023/01/02 09:41:31;;;;;;;;;;;10.40;99.90;;;;;;5057411;28;19913;-60
2023/01/02 09:43:58;;;;;;;;;;;10.40;99.90;;;;;;5057450;28;19915;-61
2023/01/02 09:46:47;;;;;;;;;;;10.40;99.90;;;;;;5057279;28;19916;-61
2023/01/02 09:49:14;;;;;;;;;;;10.40;99.90;;;;;;5019034;28;20007;-61
2023/01/02 09:51:41;;;;;;;;;;;10.40;99.90;;;;;;5057557;28;19909;-62
2023/01/02 09:54:14;;;;;;;;;;;10.40;99.90;;;;;;5057149;28;19993;-62
2023/01/02 09:56:41;;;;;;;;;;;10.40;99.90;;;;;;5057194;28;19912;-62
2023/01/02 09:59:12;;;;;;;;;;;10.40;99.90;;;;;;5057424;28;19924;-62
2023/01/02 10:01:47;;;;;;;;;;;10.40;99.90;;;;;;5057378;28;20659;-62
2023/01/02 10:04:18;;;;;;;;;;;10.40;99.90;;;;;;5057260;28;19916;-61
2023/01/02 10:06:57;;;;;;;;;;;10.40;99.90;;;;;;5057209;28;19915;-62
2023/01/02 10:09:33;;;;;;;;;;;10.40;99.90;;;;;;5056965;28;19913;-62
2023/01/02 10:12:11;;;;;;;;;;;10.40;99.90;;;;;;5057404;28;19920;-62
2023/01/02 10:14:58;;;;;;;;;;;10.40;99.90;;;;;;5057428;28;19970;-61
2023/01/02 10:17:24;;;;;;;;;;;10.40;99.90;;;;;;5056968;28;19915;-61
2023/01/02 10:20:08;;;;;;;;;;;10.40;99.90;;;;;;5057108;28;19916;-61
2023/01/02 10:22:40;;;;;;;;;;;10.40;99.90;;;;;;5057297;28;20288;-61
2023/01/02 10:25:15;;;;;;;;;;;10.40;99.90;;;;;;5057182;28;19909;-61
2023/01/02 10:28:00;;;;;;;;;;;10.40;99.90;;;;;;5056923;28;19909;-61
2023/01/02 10:30:27;;;;;;;;;;;10.40;99.90;;;;;;5056768;28;19952;-61
2023/01/02 10:32:59;;;;;;;;;;;10.40;99.90;;;;;;5057244;28;20368;-61
2023/01/02 10:35:33;;;;;;;;;;;10.40;99.90;;;;;;5055599;28;20293;-62
2023/01/02 10:37:58;;;;;;;;;;;10.40;99.90;;;;;;5056943;28;19913;-61
2023/01/02 10:40:24;;;;;;;;;;;10.40;99.90;;;;;;5056611;28;20306;-62
2023/01/02 10:42:52;;;;;;;;;;;10.40;99.90;;;;;;5057233;28;19909;-62
2023/01/02 10:45:17;;;;;;;;;;;10.40;99.90;;;;;;5056794;28;19916;-61
2023/01/02 10:47:43;;;;;;;;;;;10.40;99.90;;;;;;5052514;28;19908;-61
2023/01/02 10:50:16;;;;;;;;;;;10.40;99.90;;;;;;5053550;28;19920;-61
2023/01/02 10:52:52;;;;;;;;;;;10.40;99.90;;;;;;5053803;28;19908;-61
2023/01/02 10:55:29;;;;;;;;;;;10.50;99.90;;;;;;5053540;28;19958;-61
2023/01/02 10:58:00;;;;;;;;;;;10.50;99.90;;;;;;5053485;28;19954;-61
2023/01/02 11:00:27;;;;;;;;;;;10.50;99.90;;;;;;5053489;28;19909;-61
2023/01/02 11:02:54;;;;;;;;;;;10.60;99.90;;;;;;5053746;28;19959;-61
2023/01/02 11:05:21;;;;;;;;;;;10.70;99.90;;;;;;5053402;28;19908;-61
2023/01/02 11:07:48;;;;;;;;;;;10.70;99.90;;;;;;5053334;28;20332;-61
2023/01/02 11:10:33;;;;;;;;;;;10.80;99.90;;;;;;5053195;28;20396;-61
2023/01/02 11:13:02;;;;;;;;;;;10.80;99.90;;;;;;5053499;28;20269;-61
2023/01/02 11:15:30;;;;;;;;;;;10.80;99.90;;;;;;5053290;28;19912;-61
2023/01/02 11:17:56;;;;;;;;;;;10.80;99.90;;;;;;5053033;28;19904;-62
2023/01/02 11:20:24;;;;;;;;;;;10.70;99.90;;;;;;5052953;28;19913;-61
2023/01/02 11:22:50;;;;;;;;;;;10.70;99.90;;;;;;5053443;28;20242;-61
2023/01/02 11:25:19;;;;;;;;;;;10.60;99.90;;;;;;5053261;28;19908;-61
2023/01/02 11:27:45;;;;;;;;;;;10.50;99.90;;;;;;5052951;28;19915;-61
2023/01/02 11:30:25;;;;;;;;;;;10.60;99.90;;;;;;5052719;28;19912;-61
2023/01/02 11:33:01;;;;;;;;;;;10.60;99.90;;;;;;5053155;28;19912;-62
2023/01/02 11:35:44;;;;;;;;;;;10.60;99.90;;;;;;5052795;28;19916;-61
2023/01/02 11:38:17;;;;;;;;;;;10.60;99.90;;;;;;5052790;28;19917;-61
2023/01/02 11:40:54;;;;;;;;;;;10.60;99.90;;;;;;5052535;28;20038;-61
2023/01/02 11:46:09;;;;;;;;;;;10.70;99.90;;;;;;5052741;28;19915;-61
2023/01/02 11:48:35;;;;;;;;;;;10.70;99.90;;;;;;5052606;28;19920;-60
2023/01/02 11:51:01;;;;;;;;;;;10.80;99.90;;;;;;5053185;28;19931;-60
2023/01/02 11:53:30;;;;;;;;;;;10.90;99.90;;;;;;5052908;28;20349;-61
2023/01/02 11:55:58;;;;;;;;;;;10.90;99.90;;;;;;5052476;28;19966;-60
2023/01/02 11:58:33;;;;;;;;;;;10.90;99.90;;;;;;5051877;28;20320;-61
2023/01/02 12:01:18;;;;;;;;;;;11.00;99.90;;;;;;5052550;28;19909;-61
2023/01/02 12:03:43;;;;;;;;;;;11.00;99.90;;;;;;5052298;28;19909;-61
2023/01/02 12:06:23;;;;;;;;;;;11.00;99.90;;;;;;5052264;28;19909;-61
2023/01/02 12:09:03;;;;;;;;;;;10.90;99.90;;;;;;5052129;28;20016;-62
2023/01/02 12:11:47;;;;;;;;;;;10.90;99.90;;;;;;5052321;28;20201;-62
2023/01/02 12:14:13;;;;;;;;;;;10.90;99.90;;;;;;5051937;28;19909;-61
2023/01/02 12:16:38;;;;;;;;;;;10.90;99.90;;;;;;5051856;28;19909;-61
2023/01/02 12:19:31;;;;;;;;;;;10.90;99.90;;;;;;5051864;28;19912;-61
2023/01/02 12:22:16;;;;;;;;;;;10.90;99.90;;;;;;5052043;28;19909;-61
2023/01/02 12:24:47;;;;;;;;;;;10.90;99.90;;;;;;5051727;28;20388;-61
2023/01/02 12:27:22;;;;;;;;;;;10.90;99.90;;;;;;5051853;28;19909;-61
2023/01/02 12:29:48;;;;;;;;;;;11.00;99.90;;;;;;5051818;28;19917;-61
2023/01/02 12:32:28;;;;;;;;;;;10.90;99.90;;;;;;5051832;28;19909;-62
2023/01/02 12:34:58;;;;;;;;;;;10.90;99.90;;;;;;5051697;28;20003;-61
2023/01/02 12:37:23;;;;;;;;;;;10.80;99.90;;;;;;5051503;28;20003;-62
2023/01/02 12:40:24;;;;;;;;;;;10.80;99.90;;;;;;5051763;28;19959;-61
2023/01/02 12:42:56;;;;;;;;;;;10.90;99.90;;;;;;4970392;28;19910;-61
2023/01/02 12:45:27;;;;;;;;;;;10.80;99.90;;;;;;5038014;28;19909;-61
2023/01/02 12:48:08;;;;;;;;;;;10.70;99.90;;;;;;5051654;28;19999;-61
2023/01/02 12:50:46;;;;;;;;;;;10.80;99.90;;;;;;5051295;28;19919;-60
2023/01/02 12:53:11;;;;;;;;;;;10.80;99.90;;;;;;5051314;28;19917;-61
2023/01/02 12:55:56;;;;;;;;;;;10.70;99.90;;;;;;5051092;28;19913;-61
2023/01/02 12:58:27;;;;;;;;;;;10.80;99.90;;;;;;5050971;28;19909;-61
2023/01/02 13:00:59;;;;;;;;;;;10.80;99.90;;;;;;5051220;28;20293;-61
2023/01/02 13:03:30;;;;;;;;;;;10.70;99.90;;;;;;5051311;28;20002;-62
2023/01/02 13:06:10;;;;;;;;;;;10.80;99.90;;;;;;5051068;28;19908;-62
2023/01/02 13:08:48;;;;;;;;;;;10.80;99.90;;;;;;5050982;28;19936;-62
2023/01/02 13:11:19;;;;;;;;;;;10.80;99.90;;;;;;5051164;28;20304;-62
2023/01/02 13:13:45;;;;;;;;;;;10.70;99.90;;;;;;5050986;28;19909;-61
2023/01/02 13:16:12;;;;;;;;;;;10.70;99.90;;;;;;5051101;28;19909;-62
2023/01/02 13:18:38;;;;;;;;;;;10.80;99.90;;;;;;5050547;28;19919;-61
2023/01/02 13:21:03;;;;;;;;;;;10.80;99.90;;;;;;5050917;28;20284;-62
2023/01/02 13:23:31;;;;;;;;;;;10.80;99.90;;;;;;5050876;28;19909;-61
2023/01/02 13:26:05;;;;;;;;;;;10.70;99.90;;;;;;5051078;28;20495;-61
2023/01/02 13:28:32;;;;;;;;;;;10.80;99.90;;;;;;5050383;28;19917;-61
2023/01/02 13:31:00;;;;;;;;;;;10.80;99.90;;;;;;5050762;28;19915;-61
2023/01/02 13:33:47;;;;;;;;;;;10.70;99.90;;;;;;5051216;28;20003;-61
2023/01/02 13:36:12;;;;;;;;;;;10.70;99.90;;;;;;5050997;28;19909;-61
2023/01/02 13:38:39;;;;;;;;;;;10.70;99.90;;;;;;5051000;28;19935;-61
2023/01/02 13:41:05;;;;;;;;;;;10.70;99.90;;;;;;5050778;28;19909;-61
2023/01/02 13:43:31;;;;;;;;;;;10.70;99.90;;;;;;5050778;28;19915;-61
2023/01/02 13:45:58;;;;;;;;;;;10.60;99.90;;;;;;5050638;28;20320;-61
2023/01/02 13:48:26;;;;;;;;;;;10.60;99.90;;;;;;5050899;28;19944;-61
2023/01/02 13:50:59;;;;;;;;;;;10.60;99.90;;;;;;5050637;28;19908;-61
2023/01/02 13:53:37;;;;;;;;;;;10.60;99.90;;;;;;5051014;28;20167;-61
2023/01/02 13:56:09;;;;;;;;;;;10.60;99.90;;;;;;5050696;28;19913;-61
2023/01/02 13:58:51;;;;;;;;;;;10.60;99.90;;;;;;5050293;28;19954;-61
2023/01/02 14:01:20;;;;;;;;;;;10.60;99.90;;;;;;5050807;28;19909;-61
2023/01/02 14:04:04;;;;;;;;;;;10.60;99.90;;;;;;5050675;28;19988;-60
2023/01/02 14:06:36;;;;;;;;;;;10.60;99.90;;;;;;5050478;28;19913;-61
2023/01/02 14:09:08;;;;;;;;;;;10.60;99.90;;;;;;5050864;28;19923;-61
2023/01/02 14:11:51;;;;;;;;;;;10.60;99.90;;;;;;5050696;28;19915;-61
2023/01/02 14:14:19;;;;;;;;;;;10.50;99.90;;;;;;5050675;28;20349;-61
2023/01/02 14:17:03;;;;;;;;;;;10.50;99.90;;;;;;5050768;28;19908;-61
2023/01/02 14:19:29;;;;;;;;;;;10.40;99.90;;;;;;5050857;28;19913;-61
2023/01/02 14:21:57;;;;;;;;;;;10.40;99.90;;;;;;5052268;28;19912;-60
2023/01/02 14:24:32;;;;;;;;;;;10.30;99.90;;;;;;5054264;28;19905;-60
2023/01/02 14:27:00;;;;;;;;;;;10.20;99.90;;;;;;5054437;28;19908;-60
2023/01/02 14:29:25;;;;;;;;;;;10.20;99.90;;;;;;5053978;28;20007;-61
2023/01/02 14:32:03;;;;;;;;;;;10.30;99.90;;;;;;5054148;28;20434;-61